Time;durP1;ratioP1;P1;durP2;ratioP2;P2;SDS_P1;SDS_P2;PMS_P1;PMS_P2;Temp;Humidity;BMP_temperature;BMP_pressure;BME280_temperature;BME280_humidity;BME280_pressure;Samples;Min_cycle;Max_cycle;Signal;HPM_P1;HPM_P2
2022/11/03 03:38:42;;;;;;;27.17;24.77;;;6.90;99.90;;;;;;5754090;23;20477;-69
2022/11/03 03:41:20;;;;;;;27.00;24.87;;;6.80;99.90;;;;;;4954254;29;21008;-69
2022/11/03 03:43:48;;;;;;;27.70;25.10;;;6.70;99.90;;;;;;4954884;29;20471;-70
2022/11/03 03:46:17;;;;;;;28.73;26.13;;;6.70;99.90;;;;;;4954489;29;20453;-69
2022/11/03 03:48:44;;;;;;;27.87;25.50;;;6.70;99.90;;;;;;4954639;29;20454;-70
2022/11/03 03:51:13;;;;;;;28.33;25.57;;;6.70;99.90;;;;;;4954742;29;20455;-70
2022/11/03 03:53:42;;;;;;;26.33;24.27;;;6.70;99.90;;;;;;4954434;29;20451;-70
2022/11/03 03:56:09;;;;;;;26.37;24.17;;;6.70;99.90;;;;;;4954377;29;20458;-70
2022/11/03 03:58:36;;;;;;;26.00;23.87;;;6.70;99.90;;;;;;4954598;28;20829;-71
2022/11/03 04:01:02;;;;;;;27.20;24.87;;;6.70;99.90;;;;;;4954472;29;21020;-71
2022/11/03 04:03:29;;;;;;;24.20;22.40;;;6.80;99.90;;;;;;4954480;29;20452;-72
2022/11/03 04:05:56;;;;;;;24.87;22.97;;;6.80;99.90;;;;;;4954175;29;20942;-70
2022/11/03 04:08:22;;;;;;;28.63;23.37;;;6.80;99.90;;;;;;4954174;29;20456;-72
2022/11/03 04:24:32;;;;;;;22.40;20.20;;;6.60;99.90;;;;;;4954166;29;20852;-72
2022/11/03 04:27:05;;;;;;;23.57;21.47;;;6.50;99.90;;;;;;4953947;29;20453;-72
2022/11/03 04:29:32;;;;;;;22.97;21.43;;;6.50;99.90;;;;;;4954067;29;20469;-71
2022/11/03 04:31:59;;;;;;;22.83;21.17;;;6.40;99.90;;;;;;4953901;29;20451;-71
2022/11/03 04:34:26;;;;;;;21.70;20.40;;;6.40;99.90;;;;;;4953727;29;20950;-72
2022/11/03 04:36:53;;;;;;;23.77;21.87;;;6.30;99.90;;;;;;4953667;28;20443;-72
2022/11/03 04:39:20;;;;;;;23.47;21.63;;;6.40;99.90;;;;;;4953748;29;20486;-72
2022/11/03 04:41:47;;;;;;;22.80;21.20;;;6.40;99.90;;;;;;4953508;29;20475;-72
2022/11/03 04:44:16;;;;;;;25.23;23.53;;;6.40;99.90;;;;;;4953643;29;20448;-72
2022/11/03 04:46:45;;;;;;;26.73;24.47;;;6.40;99.90;;;;;;4953529;29;20517;-72
2022/11/03 04:49:17;;;;;;;28.30;25.57;;;6.40;99.90;;;;;;4953522;29;20460;-72
2022/11/03 04:51:44;;;;;;;27.10;24.67;;;6.40;99.90;;;;;;4953418;29;20952;-71
2022/11/03 04:54:15;;;;;;;27.97;25.67;;;6.40;99.90;;;;;;4953329;29;20448;-71
2022/11/03 04:56:42;;;;;;;27.00;24.90;;;6.40;99.90;;;;;;4953361;29;20814;-72
2022/11/03 04:59:13;;;;;;;27.03;25.03;;;6.40;99.90;;;;;;4953259;29;20451;-71
2022/11/03 05:01:41;;;;;;;26.70;24.70;;;6.40;99.90;;;;;;4952985;29;20489;-72
2022/11/03 05:04:12;;;;;;;26.57;24.43;;;6.40;99.90;;;;;;4953315;29;20938;-72
2022/11/03 05:06:43;;;;;;;27.87;25.50;;;6.40;99.90;;;;;;4953131;29;20458;-71
2022/11/03 05:09:15;;;;;;;25.37;23.60;;;6.50;99.90;;;;;;4951249;29;20805;-71
2022/11/03 05:11:45;;;;;;;27.53;25.43;;;6.50;99.90;;;;;;4952848;29;20456;-71
2022/11/03 05:14:18;;;;;;;25.43;23.63;;;6.50;99.90;;;;;;4952724;28;20456;-71
2022/11/03 05:16:47;;;;;;;27.03;24.83;;;6.50;99.90;;;;;;4952584;29;20452;-72
2022/11/03 05:19:18;;;;;;;26.80;24.40;;;6.50;99.90;;;;;;4952645;29;20509;-72
2022/11/03 05:21:47;;;;;;;27.37;24.90;;;6.50;99.90;;;;;;4952404;29;20494;-72
2022/11/03 05:24:14;;;;;;;26.67;24.50;;;6.50;99.90;;;;;;4952485;29;20559;-72
2022/11/03 05:26:41;;;;;;;26.57;24.67;;;6.50;99.90;;;;;;4952544;29;20724;-72
2022/11/03 05:29:14;;;;;;;29.07;26.17;;;6.50;99.90;;;;;;4952485;29;20912;-72
2022/11/03 05:31:41;;;;;;;26.50;24.57;;;6.50;99.90;;;;;;4951292;28;20773;-73
2022/11/03 05:34:28;;;;;;;27.03;25.00;;;6.50;99.90;;;;;;4952284;29;20815;-72
2022/11/03 05:36:54;;;;;;;30.60;27.50;;;6.50;99.90;;;;;;4952170;28;20444;-72
2022/11/03 05:39:29;;;;;;;28.87;26.50;;;6.50;99.90;;;;;;4951802;29;20504;-72
2022/11/03 05:41:57;;;;;;;28.03;25.70;;;6.40;99.90;;;;;;4951840;29;20489;-72
2022/11/03 05:44:28;;;;;;;28.43;26.13;;;6.40;99.90;;;;;;4951790;29;20452;-72
2022/11/03 05:46:56;;;;;;;28.13;25.23;;;6.40;99.90;;;;;;4951864;29;20935;-72
2022/11/03 05:49:25;;;;;;;31.23;28.13;;;6.40;99.90;;;;;;4951744;29;20461;-72
2022/11/03 05:51:51;;;;;;;29.90;27.33;;;6.30;99.90;;;;;;4951861;29;20457;-73
2022/11/03 05:54:22;;;;;;;27.03;24.83;;;6.30;99.90;;;;;;4952328;29;20448;-73
2022/11/03 05:56:49;;;;;;;28.17;25.70;;;6.20;99.90;;;;;;4952028;29;20451;-73
2022/11/03 05:59:22;;;;;;;26.80;24.90;;;6.20;99.90;;;;;;4951807;29;20452;-72
2022/11/03 06:01:49;;;;;;;28.23;26.23;;;6.10;99.90;;;;;;4951956;29;20513;-72
2022/11/03 06:04:21;;;;;;;28.97;26.67;;;6.10;99.90;;;;;;4951451;29;20782;-71
2022/11/03 06:06:52;;;;;;;31.83;28.63;;;6.10;99.90;;;;;;4951962;29;20454;-72
2022/11/03 06:09:22;;;;;;;30.87;28.37;;;6.10;99.90;;;;;;4951884;29;20449;-71
2022/11/03 06:11:50;;;;;;;28.43;26.17;;;6.10;99.90;;;;;;4952125;29;20455;-72
2022/11/03 06:14:19;;;;;;;28.30;25.90;;;6.10;99.90;;;;;;4951601;29;20451;-72
2022/11/03 06:16:48;;;;;;;30.17;27.37;;;6.00;99.90;;;;;;4951505;29;20542;-71
2022/11/03 06:19:28;;;;;;;29.40;27.10;;;6.00;99.90;;;;;;4951294;29;20933;-74
2022/11/03 06:21:59;;;;;;;30.63;28.00;;;6.00;99.90;;;;;;4951109;29;20498;-73
2022/11/03 06:24:30;;;;;;;27.90;25.70;;;6.00;99.90;;;;;;4951263;29;20454;-73
2022/11/03 06:26:58;;;;;;;28.00;25.50;;;6.00;99.90;;;;;;4951146;29;20454;-73
2022/11/03 06:29:25;;;;;;;28.97;26.63;;;6.00;99.90;;;;;;4951032;29;20964;-73
2022/11/03 06:31:55;;;;;;;28.50;26.13;;;6.00;99.90;;;;;;4951261;29;20474;-72
2022/11/03 06:34:37;;;;;;;26.97;24.97;;;6.10;99.90;;;;;;4951194;29;20456;-73
2022/11/03 06:37:18;;;;;;;27.90;25.00;;;6.10;99.90;;;;;;4951372;28;20475;-73
2022/11/03 06:39:45;;;;;;;29.50;26.80;;;6.00;99.90;;;;;;4950768;29;20602;-73
2022/11/03 06:42:14;;;;;;;26.40;23.93;;;6.10;99.90;;;;;;4950486;28;20491;-73
2022/11/03 06:44:43;;;;;;;28.30;25.97;;;6.10;99.90;;;;;;4950875;29;21175;-72
2022/11/03 06:47:21;;;;;;;27.20;24.87;;;6.20;99.90;;;;;;4950942;28;20478;-73
2022/11/03 06:49:49;;;;;;;27.53;25.03;;;6.40;99.90;;;;;;4951359;29;20452;-73
2022/11/03 06:52:25;;;;;;;26.43;24.23;;;6.60;99.90;;;;;;4950853;29;20444;-73
2022/11/03 06:54:55;;;;;;;28.27;25.37;;;6.90;99.90;;;;;;4951299;29;20516;-73
2022/11/03 06:57:22;;;;;;;27.53;25.13;;;7.10;99.90;;;;;;4949364;29;20452;-73
2022/11/03 06:59:50;;;;;;;30.00;27.30;;;7.10;99.90;;;;;;4951397;28;20464;-73
2022/11/03 07:02:48;;;;;;;26.47;23.93;;;7.20;99.90;;;;;;4951475;29;20503;-73
2022/11/03 07:05:22;;;;;;;25.93;23.30;;;7.30;99.90;;;;;;4951035;29;20448;-72
2022/11/03 07:07:53;;;;;;;25.63;23.40;;;7.40;99.90;;;;;;4951416;29;20484;-72
2022/11/03 07:10:24;;;;;;;25.57;23.20;;;7.50;99.90;;;;;;4951250;29;20452;-71
2022/11/03 07:12:51;;;;;;;23.63;21.80;;;7.70;99.90;;;;;;4951186;29;20453;-73
2022/11/03 07:15:27;;;;;;;24.37;22.13;;;8.00;99.90;;;;;;4951080;29;20452;-73
2022/11/03 07:17:54;;;;;;;22.00;19.93;;;8.40;99.90;;;;;;4951114;29;20879;-73
2022/11/03 07:20:21;;;;;;;23.50;21.33;;;8.30;99.90;;;;;;4951356;29;20453;-73
2022/11/03 07:22:51;;;;;;;20.27;18.73;;;8.50;99.90;;;;;;4951259;29;20496;-73
2022/11/03 07:25:19;;;;;;;20.27;18.87;;;8.70;99.90;;;;;;4951175;29;20805;-73
2022/11/03 07:27:48;;;;;;;22.40;20.40;;;8.60;99.90;;;;;;4950932;28;20511;-73
2022/11/03 07:30:20;;;;;;;22.70;20.83;;;8.60;99.90;;;;;;4950762;29;20523;-74
2022/11/03 07:32:48;;;;;;;23.23;21.30;;;8.40;99.90;;;;;;4950809;29;20449;-73
2022/11/03 07:35:34;;;;;;;22.00;20.40;;;8.40;99.90;;;;;;4950780;28;20464;-73
2022/11/03 07:38:09;;;;;;;24.43;22.17;;;8.50;99.90;;;;;;4950514;28;21001;-72
2022/11/03 07:40:36;;;;;;;25.00;23.00;;;8.50;99.90;;;;;;4950876;29;20451;-71
2022/11/03 08:22:38;;;;;;;20.97;19.33;;;9.10;99.90;;;;;;5085991;27;20573;-74
2022/11/03 08:25:05;;;;;;;25.10;19.07;;;9.30;99.90;;;;;;5086542;28;20442;-74
2022/11/03 08:27:32;;;;;;;21.43;19.67;;;;;;;;;;5086290;28;20439;-73
2022/11/03 08:29:59;;;;;;;21.47;19.97;;;9.70;99.90;;;;;;5086017;28;21012;-74
2022/11/03 08:32:26;;;;;;;22.17;20.43;;;;;;;;;;5083767;28;20445;-73
2022/11/03 08:34:53;;;;;;;21.30;19.40;;;;;;;;;;5085005;28;20449;-73
2022/11/03 08:37:20;;;;;;;21.17;19.47;;;10.30;99.90;;;;;;5085519;28;20798;-73
2022/11/03 08:39:48;;;;;;;22.30;20.43;;;10.60;99.90;;;;;;5084898;28;20442;-73
2022/11/03 08:42:15;;;;;;;20.93;18.77;;;10.70;99.90;;;;;;5085082;28;20485;-73
2022/11/03 08:44:41;;;;;;;21.70;19.60;;;11.00;99.90;;;;;;5085544;28;20529;-75
2022/11/03 08:47:08;;;;;;;21.27;19.60;;;11.00;99.90;;;;;;5084773;28;20442;-74
2022/11/03 08:49:35;;;;;;;21.93;20.13;;;11.10;99.90;;;;;;5085415;28;20446;-73
2022/11/03 08:52:01;;;;;;;21.07;19.17;;;11.10;99.90;;;;;;5084985;28;20438;-72
2022/11/03 08:54:28;;;;;;;24.07;21.93;;;11.40;99.90;;;;;;5084641;28;20435;-75
2022/11/03 08:56:56;;;;;;;22.77;20.90;;;11.20;99.90;;;;;;5084661;28;20442;-74
2022/11/03 08:59:23;;;;;;;25.23;21.07;;;11.20;99.90;;;;;;5085310;28;20454;-74
2022/11/03 09:01:50;;;;;;;22.13;20.07;;;11.40;99.90;;;;;;5085217;28;20596;-73
2022/11/03 09:04:16;;;;;;;21.87;20.17;;;11.40;99.90;;;;;;5084929;28;20443;-73
2022/11/03 09:06:43;;;;;;;20.40;18.63;;;11.60;99.90;;;;;;5084307;28;20457;-74
2022/11/03 09:09:10;;;;;;;20.40;18.80;;;11.60;99.90;;;;;;5084656;28;20809;-74
2022/11/03 09:11:36;;;;;;;19.70;18.20;;;11.70;99.90;;;;;;5084639;28;20449;-73
2022/11/03 09:14:05;;;;;;;19.77;18.23;;;11.80;99.90;;;;;;5085333;28;20454;-73
2022/11/03 09:16:31;;;;;;;20.27;18.67;;;11.80;99.90;;;;;;5084487;28;20460;-72
2022/11/03 09:18:58;;;;;;;18.10;16.40;;;12.10;99.90;;;;;;5084150;28;20563;-73
2022/11/03 09:21:25;;;;;;;18.57;17.10;;;12.40;99.90;;;;;;5084391;28;21025;-73
2022/11/03 09:23:52;;;;;;;17.20;15.80;;;12.70;99.90;;;;;;5083972;28;20461;-73
2022/11/03 09:26:19;;;;;;;17.37;16.13;;;13.00;99.90;;;;;;5084677;28;20454;-73
2022/11/03 09:28:45;;;;;;;18.43;16.80;;;13.10;99.90;;;;;;5084443;28;20455;-73
2022/11/03 09:31:14;;;;;;;17.57;16.57;;;13.00;99.90;;;;;;5083994;28;20474;-72
2022/11/03 09:33:40;;;;;;;16.90;15.40;;;13.00;99.90;;;;;;5071853;28;21032;-72
2022/11/03 09:36:08;;;;;;;17.83;16.70;;;12.90;99.90;;;;;;5070833;28;20450;-73
2022/11/03 09:38:34;;;;;;;17.63;16.10;;;13.20;99.90;;;;;;5070783;28;20561;-73
2022/11/03 09:41:02;;;;;;;16.80;15.70;;;13.30;99.90;;;;;;5070395;28;20478;-74
2022/11/03 09:43:30;;;;;;;16.40;15.40;;;13.20;99.90;;;;;;5069807;28;20451;-73
2022/11/03 09:45:58;;;;;;;16.13;15.20;;;14.80;99.90;;;;;;5070279;28;20450;-73
2022/11/03 09:48:26;;;;;;;16.57;15.37;;;13.10;99.90;;;;;;5070294;28;20443;-73
2022/11/03 09:50:54;;;;;;;15.53;14.70;;;13.10;99.90;;;;;;5070804;28;20778;-73
2022/11/03 09:53:21;;;;;;;16.67;15.47;;;13.10;99.90;;;;;;5070304;28;20443;-73
2022/11/03 09:55:48;;;;;;;17.30;15.77;;;13.00;99.90;;;;;;5070728;28;20439;-74
2022/11/03 09:58:17;;;;;;;17.70;16.43;;;12.90;99.90;;;;;;5070178;28;20443;-74
2022/11/03 10:00:45;;;;;;;16.53;15.63;;;12.90;99.90;;;;;;5069764;28;20474;-73
2022/11/03 10:03:12;;;;;;;16.93;15.57;;;12.90;99.90;;;;;;5070019;28;20447;-74
2022/11/03 10:05:43;;;;;;;16.90;15.63;;;12.90;99.90;;;;;;5070234;28;20987;-73
2022/11/03 10:08:23;;;;;;;16.57;15.63;;;12.90;99.90;;;;;;5070108;28;20466;-73
2022/11/03 10:10:50;;;;;;;18.30;16.90;;;12.90;99.90;;;;;;5070610;28;20457;-74
2022/11/03 10:13:23;;;;;;;16.97;15.53;;;12.80;99.90;;;;;;5070477;28;20439;-73
2022/11/03 10:15:50;;;;;;;16.73;15.77;;;12.70;99.90;;;;;;5070974;28;20449;-73
2022/11/03 10:18:17;;;;;;;18.03;16.57;;;;;;;;;;5069926;28;20513;-74
2022/11/03 10:20:46;;;;;;;17.30;16.17;;;12.60;99.90;;;;;;5069904;28;20475;-75
2022/11/03 10:23:12;;;;;;;18.03;16.60;;;12.60;99.90;;;;;;5069481;28;20878;-75
2022/11/03 10:25:41;;;;;;;17.97;16.07;;;12.80;99.90;;;;;;5069711;28;20472;-73
2022/11/03 10:28:17;;;;;;;20.03;18.03;;;13.90;99.90;;;;;;5069793;28;20465;-74
2022/11/03 10:30:55;;;;;;;18.67;17.33;;;12.90;99.90;;;;;;5069623;28;20455;-74
2022/11/03 10:33:27;;;;;;;17.00;15.90;;;13.00;99.90;;;;;;5070016;28;20533;-74
2022/11/03 10:35:57;;;;;;;17.80;16.70;;;13.00;99.90;;;;;;5070047;28;20500;-73
2022/11/03 10:38:29;;;;;;;18.00;16.50;;;13.00;99.90;;;;;;5069927;28;20474;-73
2022/11/03 10:40:57;;;;;;;20.90;16.57;;;13.10;99.90;;;;;;5069748;28;20558;-74
2022/11/03 10:43:23;;;;;;;17.57;16.30;;;13.10;99.90;;;;;;5069201;28;20450;-74
2022/11/03 10:46:09;;;;;;;17.93;16.70;;;13.20;99.90;;;;;;5069327;28;20451;-74
2022/11/03 10:48:35;;;;;;;17.07;15.77;;;13.20;99.90;;;;;;5069704;28;20458;-74
2022/11/03 10:51:04;;;;;;;17.73;16.00;;;13.10;99.90;;;;;;5069690;28;20447;-73
2022/11/03 10:53:31;;;;;;;18.73;17.00;;;13.10;99.90;;;;;;5069164;28;20443;-74
2022/11/03 10:55:58;;;;;;;17.10;15.63;;;13.20;99.90;;;;;;5068967;28;20454;-72
2022/11/03 10:58:25;;;;;;;18.27;16.80;;;13.20;99.90;;;;;;5068929;28;20451;-72
2022/11/03 11:00:51;;;;;;;17.27;15.97;;;13.20;99.90;;;;;;5068959;28;20447;-73
2022/11/03 11:03:18;;;;;;;17.87;16.47;;;13.30;99.90;;;;;;5069473;28;20443;-73
2022/11/03 11:05:46;;;;;;;17.70;16.60;;;13.50;99.90;;;;;;5068820;28;20455;-73
2022/11/03 11:08:18;;;;;;;17.40;15.80;;;13.50;99.90;;;;;;5068867;28;20447;-73
2022/11/03 11:10:45;;;;;;;18.37;16.60;;;13.60;99.90;;;;;;5069346;28;20454;-73
2022/11/03 11:13:26;;;;;;;17.10;15.80;;;13.60;99.90;;;;;;5068787;28;20471;-75
2022/11/03 11:15:54;;;;;;;19.23;17.63;;;13.50;99.90;;;;;;5069392;28;20816;-73
2022/11/03 11:18:54;;;;;;;16.83;15.33;;;13.50;99.90;;;;;;5069116;28;20450;-73
2022/11/03 11:21:57;;;;;;;15.83;14.43;;;13.40;99.90;;;;;;5068565;28;20491;-73
2022/11/03 11:25:00;;;;;;;15.63;14.43;;;13.30;99.90;;;;;;5069172;28;20541;-74
2022/11/03 11:28:05;;;;;;;16.27;15.27;;;13.20;99.90;;;;;;5068652;28;20615;-74
2022/11/03 11:30:59;;;;;;;16.53;15.40;;;13.20;99.90;;;;;;5068890;28;20640;-74
2022/11/03 11:33:27;;;;;;;15.90;14.80;;;13.30;99.90;;;;;;5032729;28;20817;-74
2022/11/03 11:36:19;;;;;;;15.97;14.83;;;13.30;99.90;;;;;;5068128;28;20447;-73
2022/11/03 11:38:56;;;;;;;16.67;15.30;;;13.30;99.90;;;;;;5069002;28;20466;-73
2022/11/03 11:41:56;;;;;;;18.63;16.80;;;13.40;99.90;;;;;;5068760;28;20558;-74
2022/11/03 11:45:02;;;;;;;18.13;16.50;;;13.30;99.90;;;;;;5068466;28;20495;-75
2022/11/03 11:47:46;;;;;;;17.70;16.57;;;13.40;99.90;;;;;;5068247;28;20534;-73
2022/11/03 11:50:31;;;;;;;17.17;15.70;;;13.40;99.90;;;;;;5068816;28;20439;-73
2022/11/03 11:53:19;;;;;;;16.70;15.37;;;13.50;99.90;;;;;;5068145;28;20875;-73
2022/11/03 11:55:50;;;;;;;16.83;15.73;;;13.40;99.90;;;;;;5068170;28;20451;-73
2022/11/03 11:58:21;;;;;;;16.87;15.80;;;13.40;99.90;;;;;;5068681;28;20454;-73
2022/11/03 12:01:00;;;;;;;17.80;16.40;;;13.40;99.90;;;;;;5068956;28;20843;-73
2022/11/03 12:03:37;;;;;;;16.57;15.60;;;13.40;99.90;;;;;;5068532;28;20780;-73
2022/11/03 12:06:05;;;;;;;18.73;17.23;;;13.40;99.90;;;;;;5068992;28;20521;-73
2022/11/03 12:08:32;;;;;;;17.77;16.80;;;13.30;99.90;;;;;;5068416;28;20945;-73
2022/11/03 12:11:01;;;;;;;16.50;15.60;;;13.30;99.90;;;;;;5068396;28;20451;-73
2022/11/03 12:13:51;;;;;;;16.83;15.57;;;13.40;99.90;;;;;;5068433;28;20980;-74
2022/11/03 12:16:33;;;;;;;16.60;15.70;;;13.40;99.90;;;;;;5066169;28;20546;-73
2022/11/03 12:19:33;;;;;;;17.07;15.90;;;13.50;99.90;;;;;;5068384;28;20447;-73
2022/11/03 12:22:00;;;;;;;18.50;17.07;;;13.60;99.90;;;;;;5067577;28;20581;-74
2022/11/03 12:24:38;;;;;;;17.10;15.87;;;13.60;99.90;;;;;;5068245;28;20980;-74
2022/11/03 12:27:18;;;;;;;18.80;17.30;;;13.60;99.90;;;;;;5068421;28;20451;-74
2022/11/03 12:29:45;;;;;;;18.80;16.80;;;13.60;99.90;;;;;;5068069;28;20451;-73
2022/11/03 12:32:13;;;;;;;16.83;15.73;;;13.60;99.90;;;;;;5068266;28;20450;-74
2022/11/03 12:34:40;;;;;;;18.07;16.50;;;13.60;99.90;;;;;;5067992;28;20451;-73
2022/11/03 12:37:07;;;;;;;17.53;16.13;;;13.60;99.90;;;;;;5068258;28;20482;-73
2022/11/03 12:39:34;;;;;;;17.70;16.40;;;13.50;99.90;;;;;;5068644;28;20504;-74
2022/11/03 12:42:01;;;;;;;16.40;15.40;;;;;;;;;;5068061;28;20479;-74
2022/11/03 12:44:28;;;;;;;18.17;16.70;;;13.40;99.90;;;;;;5068290;28;20446;-74
2022/11/03 12:46:54;;;;;;;17.90;16.70;;;13.40;99.90;;;;;;5067955;28;20450;-73
2022/11/03 12:49:22;;;;;;;19.23;17.63;;;13.40;99.90;;;;;;5067862;28;20447;-73
2022/11/03 12:51:49;;;;;;;17.47;16.27;;;13.40;99.90;;;;;;5068105;28;20462;-73
2022/11/03 12:54:16;;;;;;;19.50;18.00;;;13.40;99.90;;;;;;5067702;28;20462;-74
2022/11/03 12:56:43;;;;;;;19.10;17.13;;;;;;;;;;5067969;28;20453;-74
2022/11/03 12:59:10;;;;;;;20.83;18.93;;;13.30;99.90;;;;;;5067707;28;20477;-73
2022/11/03 13:01:37;;;;;;;17.53;16.33;;;13.40;99.90;;;;;;5068159;28;20459;-72
2022/11/03 13:04:05;;;;;;;18.50;17.33;;;13.40;99.90;;;;;;5068119;28;20447;-73
2022/11/03 13:06:33;;;;;;;18.53;16.93;;;13.40;99.90;;;;;;5068038;28;20980;-74
2022/11/03 13:08:59;;;;;;;19.50;18.00;;;13.50;99.90;;;;;;5070828;28;20453;-73
2022/11/03 13:14:10;;;;;;;18.53;17.13;;;13.60;99.90;;;;;;5071722;28;20931;-74
2022/11/03 13:16:37;;;;;;;19.60;17.77;;;13.60;99.90;;;;;;5071394;28;21016;-74
2022/11/03 13:19:04;;;;;;;20.50;18.83;;;13.50;99.90;;;;;;5072176;28;20447;-74
2022/11/03 13:21:31;;;;;;;19.70;17.73;;;13.60;99.90;;;;;;5071197;28;20983;-74
2022/11/03 13:23:59;;;;;;;19.70;18.20;;;13.60;99.90;;;;;;5071057;28;20451;-73
2022/11/03 13:26:25;;;;;;;19.93;18.30;;;13.70;99.90;;;;;;5070996;28;20447;-73
2022/11/03 13:28:52;;;;;;;20.37;18.53;;;13.70;99.90;;;;;;5071390;28;20964;-73
2022/11/03 13:31:19;;;;;;;20.80;18.80;;;13.70;99.90;;;;;;5071476;28;20952;-74
2022/11/03 13:33:45;;;;;;;19.73;18.07;;;13.70;99.90;;;;;;5070610;28;21016;-74
2022/11/03 13:36:12;;;;;;;19.00;17.70;;;13.70;99.90;;;;;;5070957;28;20451;-72
2022/11/03 13:38:39;;;;;;;19.80;18.10;;;13.70;99.90;;;;;;5070680;28;20474;-72
2022/11/03 13:41:07;;;;;;;21.87;19.57;;;13.70;99.90;;;;;;5071098;28;20443;-73
2022/11/03 13:43:34;;;;;;;20.57;18.70;;;13.80;99.90;;;;;;5071382;28;20450;-73
2022/11/03 13:46:02;;;;;;;21.60;19.70;;;13.80;99.90;;;;;;5071022;28;20447;-74
2022/11/03 13:48:29;;;;;;;28.13;19.67;;;13.80;99.90;;;;;;5070776;28;20459;-74
2022/11/03 13:50:58;;;;;;;20.63;19.13;;;13.90;99.90;;;;;;5071005;28;20474;-74
2022/11/03 13:53:25;;;;;;;19.37;17.90;;;13.90;99.90;;;;;;5070876;28;20479;-74
2022/11/03 13:55:52;;;;;;;20.07;18.67;;;13.90;99.90;;;;;;5070974;28;20443;-74
2022/11/03 13:58:20;;;;;;;20.40;18.93;;;14.00;99.90;;;;;;5070859;28;20455;-74
2022/11/03 14:00:47;;;;;;;20.80;19.30;;;13.70;99.90;;;;;;5070971;28;20455;-74
2022/11/03 14:03:14;;;;;;;19.70;18.10;;;13.80;99.90;;;;;;5070736;28;20439;-74
2022/11/03 14:05:40;;;;;;;20.40;18.90;;;13.80;99.90;;;;;;5070199;28;20470;-74
2022/11/03 14:08:07;;;;;;;21.10;19.17;;;13.70;99.90;;;;;;5071095;28;20454;-73
2022/11/03 14:10:34;;;;;;;19.30;18.10;;;13.70;99.90;;;;;;5070823;28;20458;-73
2022/11/03 14:13:00;;;;;;;20.47;19.07;;;13.60;99.90;;;;;;5070825;28;20558;-73
2022/11/03 14:15:28;;;;;;;21.13;19.50;;;13.70;99.90;;;;;;5071079;28;20439;-74
2022/11/03 14:17:55;;;;;;;21.63;20.13;;;13.60;99.90;;;;;;5069249;28;20209;-73
2022/11/03 14:20:21;;;;;;;21.30;19.60;;;13.60;99.90;;;;;;5070141;28;20443;-74
2022/11/03 14:22:48;;;;;;;22.10;20.10;;;13.60;99.90;;;;;;5070534;28;20451;-74
2022/11/03 14:25:15;;;;;;;22.00;20.30;;;13.60;99.90;;;;;;5069089;28;20454;-74
2022/11/03 14:27:42;;;;;;;23.10;21.30;;;13.60;99.90;;;;;;5071036;28;20973;-73
2022/11/03 14:30:11;;;;;;;22.50;20.47;;;13.60;99.90;;;;;;5070844;28;20443;-73
2022/11/03 14:32:39;;;;;;;23.13;21.00;;;13.60;99.90;;;;;;5071023;28;20482;-74
2022/11/03 14:35:07;;;;;;;22.63;20.37;;;13.70;99.90;;;;;;5071164;28;20443;-73
2022/11/03 14:37:34;;;;;;;23.33;21.40;;;13.60;99.90;;;;;;5071097;28;21065;-73
2022/11/03 14:40:01;;;;;;;21.93;20.17;;;13.70;99.90;;;;;;5070805;28;20447;-73
2022/11/03 14:42:26;;;;;;;21.90;20.30;;;13.70;99.90;;;;;;5070640;28;20526;-73
2022/11/03 14:44:53;;;;;;;22.90;21.10;;;13.60;99.90;;;;;;5070739;28;21024;-74
2022/11/03 14:47:21;;;;;;;22.60;20.60;;;13.60;99.90;;;;;;5070976;28;20266;-74
2022/11/03 14:49:49;;;;;;;25.10;22.80;;;13.60;99.90;;;;;;5070957;28;20499;-73
2022/11/03 14:52:16;;;;;;;24.23;22.00;;;13.60;99.90;;;;;;5070451;28;20482;-74
2022/11/03 14:54:43;;;;;;;23.73;21.90;;;13.60;99.90;;;;;;5070355;28;20945;-73
2022/11/03 14:57:10;;;;;;;23.03;20.73;;;13.60;99.90;;;;;;5070153;28;20451;-73
2022/11/03 14:59:37;;;;;;;22.73;20.93;;;13.60;99.90;;;;;;5070453;28;20451;-73
2022/11/03 15:02:04;;;;;;;24.37;22.43;;;13.60;99.90;;;;;;5070630;28;20447;-73
2022/11/03 15:04:31;;;;;;;24.37;22.40;;;13.50;99.90;;;;;;5070326;28;20852;-74
2022/11/03 15:06:59;;;;;;;23.57;21.63;;;13.60;99.90;;;;;;5070145;28;20836;-73
2022/11/03 15:09:26;;;;;;;22.07;20.30;;;;;;;;;;5070520;28;20982;-73
2022/11/03 15:11:53;;;;;;;22.43;20.63;;;13.50;99.90;;;;;;5068976;28;21467;-74
2022/11/03 15:14:19;;;;;;;24.60;22.30;;;13.50;99.90;;;;;;5070418;28;20822;-73
2022/11/03 15:16:46;;;;;;;22.93;20.87;;;13.50;99.90;;;;;;5070145;28;20443;-74
2022/11/03 15:19:13;;;;;;;24.43;22.27;;;13.50;99.90;;;;;;5069996;28;20811;-74
2022/11/03 15:21:40;;;;;;;23.67;21.73;;;13.50;99.90;;;;;;5069837;28;20497;-74
2022/11/03 15:24:08;;;;;;;25.47;23.00;;;13.50;99.90;;;;;;5070118;28;20932;-75
2022/11/03 15:26:35;;;;;;;26.63;23.90;;;13.40;99.90;;;;;;5070313;28;20451;-73
2022/11/03 15:29:02;;;;;;;24.33;21.97;;;13.40;99.90;;;;;;5070265;28;20453;-74
2022/11/03 15:31:28;;;;;;;21.13;19.30;;;13.40;99.90;;;;;;5069638;28;20450;-74
2022/11/03 15:33:55;;;;;;;23.43;21.90;;;13.40;99.90;;;;;;5067879;28;20482;-73
2022/11/03 15:36:23;;;;;;;25.87;23.20;;;13.40;99.90;;;;;;5069501;28;20455;-72
2022/11/03 15:38:49;;;;;;;24.20;22.40;;;13.40;99.90;;;;;;5068352;28;20478;-74
2022/11/03 15:41:18;;;;;;;22.93;21.03;;;13.40;99.90;;;;;;5070118;28;20443;-73
2022/11/03 15:43:46;;;;;;;26.57;24.60;;;13.40;99.90;;;;;;5068348;28;20454;-73
2022/11/03 15:46:13;;;;;;;24.77;22.37;;;13.40;99.90;;;;;;5069506;28;20447;-71
2022/11/03 15:48:40;;;;;;;23.43;21.67;;;13.40;99.90;;;;;;5069614;28;20443;-73
2022/11/03 15:51:08;;;;;;;22.60;20.90;;;13.40;99.90;;;;;;5069580;28;20447;-74
2022/11/03 15:53:35;;;;;;;22.63;20.97;;;;;;;;;;5069492;28;20478;-73
2022/11/03 15:56:01;;;;;;;21.40;19.20;;;13.40;99.90;;;;;;5069642;28;20449;-73
2022/11/03 15:58:32;;;;;;;23.70;21.90;;;13.40;99.90;;;;;;5069546;28;20474;-74
2022/11/03 16:00:59;;;;;;;22.80;20.63;;;13.40;99.90;;;;;;5068080;28;20455;-74
2022/11/03 16:03:26;;;;;;;22.27;20.57;;;13.40;99.90;;;;;;5069363;28;20455;-74
2022/11/03 16:05:53;;;;;;;22.67;21.07;;;13.40;99.90;;;;;;5068204;28;20458;-74
2022/11/03 16:08:19;;;;;;;21.50;19.83;;;13.40;99.90;;;;;;5069084;28;20458;-74
2022/11/03 16:10:46;;;;;;;21.47;19.80;;;13.40;99.90;;;;;;5069350;28;20447;-75
2022/11/03 16:13:13;;;;;;;21.60;18.97;;;13.40;99.90;;;;;;5066999;28;20483;-74
2022/11/03 16:15:41;;;;;;;21.20;19.83;;;13.30;99.90;;;;;;5068579;28;20450;-73
2022/11/03 16:18:08;;;;;;;20.83;19.20;;;13.40;99.90;;;;;;5069094;28;20451;-73
2022/11/03 16:20:34;;;;;;;20.47;19.07;;;13.40;99.90;;;;;;5069137;28;20981;-73
2022/11/03 16:23:02;;;;;;;19.97;18.33;;;;;;;;;;5068641;28;20443;-73
2022/11/03 16:25:28;;;;;;;21.43;19.83;;;13.40;99.90;;;;;;5069138;28;20447;-74
2022/11/03 16:27:55;;;;;;;21.47;19.70;;;13.40;99.90;;;;;;5069080;28;20454;-75
2022/11/03 16:30:22;;;;;;;21.37;19.80;;;13.40;99.90;;;;;;5069299;28;20451;-73
2022/11/03 16:32:51;;;;;;;20.70;19.00;;;13.40;99.90;;;;;;5069282;28;20569;-72
2022/11/03 16:35:18;;;;;;;20.20;18.50;;;13.80;99.90;;;;;;5069386;28;20897;-74
2022/11/03 16:37:45;;;;;;;18.83;17.53;;;;;;;;;;5068846;28;20477;-73
2022/11/03 16:40:12;;;;;;;18.47;16.80;;;13.50;99.90;;;;;;5068742;28;20836;-73
2022/11/03 16:42:39;;;;;;;18.37;17.03;;;13.60;99.90;;;;;;5069963;28;20443;-73
2022/11/03 16:45:12;;;;;;;19.10;17.30;;;13.60;99.90;;;;;;5073245;28;20458;-74
2022/11/03 16:47:39;;;;;;;17.90;16.87;;;13.70;99.90;;;;;;5072970;28;20450;-74
2022/11/03 16:50:08;;;;;;;18.47;17.13;;;13.70;99.90;;;;;;5072738;28;20446;-73
2022/11/03 16:52:34;;;;;;;17.67;16.47;;;13.70;99.90;;;;;;5073060;28;20841;-74
2022/11/03 16:55:20;;;;;;;19.00;17.60;;;13.70;99.90;;;;;;5072847;28;20443;-70
2022/11/03 16:57:47;;;;;;;18.90;17.40;;;13.70;99.90;;;;;;5071063;28;20496;-70
2022/11/03 17:00:16;;;;;;;17.60;16.40;;;13.80;99.90;;;;;;5071618;28;20940;-70
2022/11/03 17:02:43;;;;;;;19.30;18.00;;;13.80;99.90;;;;;;5072480;28;20713;-70
2022/11/03 17:05:12;;;;;;;18.03;16.20;;;13.80;99.90;;;;;;5072597;28;20955;-70
2022/11/03 17:07:39;;;;;;;17.90;16.70;;;13.80;99.90;;;;;;5072797;28;20443;-71
2022/11/03 17:10:07;;;;;;;18.50;16.30;;;13.80;99.90;;;;;;5072660;28;20443;-70
2022/11/03 17:12:34;;;;;;;18.43;17.10;;;13.80;99.90;;;;;;5072717;28;20991;-70
2022/11/03 17:15:00;;;;;;;17.60;16.30;;;13.70;99.90;;;;;;5072536;28;20546;-71
2022/11/03 17:17:28;;;;;;;17.50;16.20;;;14.10;99.90;;;;;;5072480;28;20449;-69
2022/11/03 17:19:55;;;;;;;17.90;16.60;;;;;;;;;;5072472;28;20530;-69